Monroe, LA

10:50 AM CST on March 06, 2015 (GMT -0600)
Monroe Regional | Change Station
CLOSE
Current Station
Airport
Location: Monroe,
Elevation: 79 ft
Nearby Weather Stations

Elev 79 ft 32.51 °N, 92.04 °W | Updated 57 minutes ago

Clear
Clear
34 °F
Feels Like 27 °F
N
9
Wind Variable Wind from ENE

Today
High -- | Low -- °F
--% Chance of Precip.
Yesterday
High -- | Low -- °F
Precip. -- in
6:30 AM 6:09 PM
Full, 99% visible
Pressure 30.66 in
Visibility 10.0 miles
Clouds Clear
Windchill 27 °F
Dew Point 19 °F
Humidity 54%
Rainfall 0.00 in
Snow Depth Not available.
UV 5 out of 12
Pollen 6.60 out of 12
Air Quality Not available.
Flu Activity Not available.
METAR KMLU 061553Z 06008KT 10SM CLR 01/M07 A3065 RMK AO2 SLP380 T00111072

More Conditions Fewer Conditions

Pressure 30.66 in
Visibility 10.0 miles
Clouds Clear
Windchill 27 °F
Dew Point 19 °F
Humidity 54%
Rainfall 0.00 in
Snow Depth Not available.
UV 5 out of 12
Pollen 6.60 out of 12
Air Quality Not available.
Flu Activity Not available.
METAR KMLU 061553Z 06008KT 10SM CLR 01/M07 A3065 RMK AO2 SLP380 T00111072

More Conditions Fewer Conditions

10-Day Weather Forecast

Almanac

Astronomy

Mar. 06, 2015 Rise Set
Actual Time
Civil Twilight
Nautical Twilight
Astronomical Twilight
Moon
Length of Visible Light
Length of Day
Tomorrow will be .
, % of the Moon is Illuminated

Today's Extremes

State Highs State Lows

Community

WunderPhotos

Upload Photos

1,803,336 photos uploaded!

WunderBlogs® & News

Nearby

Air Quality

  Air Quality AQ Index Pollutant
Not available.

Snow Depth

Station Depth Elevation

Earthquake Activity

City Distance Mag. Time & Date
Minimum magnitude displayed is 2.5.

Coastal Water Temperatures

Place Temperature

Nearby Weather Stations